Latest Weather Observations for Tuggeranong

IDN60801

Issued at 9:33 am EST Friday 30 September 2016 (issued every 30 minutes, with the page automatically refreshed every 10 minutes)

About weather observations | Map of weather stations | Latest weather observations for NSW | Other Formats
Station Details ID: 070339 Name: TUGGERANONG (ISABELLA PLAINS) AWS Lat: -35.42 Lon: 149.09 Height: 586.7 m
Data from the previous 72 hours. | See also: Recent months at Tuggeranong
Date/Time
EST
Temp
°C
App
Temp
°C
Dew
Point
°C
Rel
Hum
%
Delta-T
°C
Wind Press
QNH
hPa
Press
MSL
hPa
Rain since
9am
mm
Dir  Spd
km/h
Gust
km/h
Spd
kts
Gust
kts
30/09:30am 7.9 3.3 6.5 91 0.7 NNW 20 33 11 18 995.2 994.8 0.2
30/09:00am 7.7 2.7 6.3 91 0.7 NNW 22 37 12 20 995.3 994.9 22.2
30/08:30am 7.3 2.6 6.2 93 0.5 NNW 20 35 11 19 995.2 994.8 22.2
30/08:00am 7.0 2.9 6.4 96 0.3 NNW 17 24 9 13 995.1 994.7 22.0
30/07:30am 6.6 2.4 5.9 95 0.3 NNW 17 28 9 15 995.0 994.6 21.6
30/07:00am 6.3 2.5 5.7 96 0.3 NNW 15 24 8 13 995.0 994.6 20.8
30/06:30am 6.0 1.7 5.3 95 0.3 N 17 26 9 14 994.8 994.4 20.0
30/06:00am 5.9 1.0 4.9 93 0.5 N 20 32 11 17 994.8 994.4 19.4
30/05:30am 5.7 1.7 4.7 93 0.4 NNW 15 24 8 13 994.8 994.4 18.6
30/05:00am 5.6 1.9 4.4 92 0.5 NNW 13 22 7 12 994.9 994.5 18.0
30/04:30am 5.7 2.9 5.1 96 0.3 NNW 9 19 5 10 994.9 994.5 16.8
30/04:00am 5.9 1.1 4.7 92 0.5 NNW 19 30 10 16 994.9 994.5 15.4
30/03:30am 5.9 1.9 4.9 93 0.5 N 15 28 8 15 995.0 994.6 14.2
30/03:00am 5.9 1.9 4.9 93 0.5 N 15 20 8 11 995.3 994.9 13.2
30/02:30am 5.8 2.1 4.6 92 0.5 NNW 13 26 7 14 995.5 995.1 12.4
30/02:00am 6.2 1.8 4.7 90 0.7 N 17 28 9 15 996.1 995.7 11.6
30/01:30am 6.2 2.5 4.7 90 0.7 N 13 22 7 12 996.5 996.1 11.2
30/01:00am 6.0 2.7 4.5 90 0.7 N 11 17 6 9 997.0 996.6 11.0
30/12:30am 6.0 2.7 4.3 89 0.8 NNE 11 17 6 9 997.1 996.7 11.0
30/12:00am 5.6 2.2 4.1 90 0.7 NNE 11 17 6 9 997.1 996.7 11.0
 
Date/Time
EST
Temp
°C
App
Temp
°C
Dew
Point
°C
Rel
Hum
%
Delta-T
°C
Wind Press
QNH
hPa
Press
MSL
hPa
Rain since
9am
mm
Dir  Spd
km/h
Gust
km/h
Spd
kts
Gust
kts
29/11:30pm 5.8 2.0 4.1 89 0.8 NNE 13 20 7 11 997.2 996.8 11.0
29/11:00pm 6.0 1.8 4.0 87 0.9 N 15 22 8 12 997.2 996.8 10.8
29/10:30pm 5.4 2.4 4.2 92 0.5 NE 9 15 5 8 997.4 997.0 10.8
29/10:00pm 5.3 2.6 3.5 88 0.8 NNW 7 9 4 5 997.9 997.5 10.8
29/09:30pm 5.2 1.6 3.2 87 0.9 NW 11 20 6 11 998.0 997.6 10.6
29/09:00pm 5.5 1.6 3.5 87 0.9 WNW 13 22 7 12 998.1 997.7 10.4
29/08:30pm 6.0 1.1 4.3 89 0.8 NW 19 33 10 18 998.3 997.9 9.4
29/08:20pm 6.4 -0.2 4.1 85 1.0 NW 28 43 15 23 998.0 997.6 8.8
29/08:00pm 6.6 4.6 4.6 87 0.9 WSW 4 9 2 5 996.8 996.4 7.8
29/07:30pm 6.1 3.8 4.6 90 0.7 N 6 7 3 4 996.7 996.3 7.8
29/07:00pm 6.6 2.8 3.9 83 1.2 W 13 24 7 13 996.3 995.9 7.6
29/06:30pm 8.0 3.5 4.0 76 1.8 NW 17 24 9 13 996.8 996.4 6.8
29/06:00pm 9.2 5.1 2.5 63 3.0 NW 13 20 7 11 995.9 995.4 6.6
29/05:30pm 10.3 4.8 0.9 52 4.0 NW 19 26 10 14 995.5 995.1 6.6
29/05:00pm 12.4 7.1 1.7 48 4.8 NW 19 28 10 15 995.0 994.6 6.6
29/04:30pm 12.9 7.5 2.5 49 4.7 NW 20 33 11 18 994.7 994.3 6.6
29/04:00pm 12.1 6.6 1.7 49 4.6 NW 20 35 11 19 994.6 994.2 6.6
29/03:30pm 13.6 8.4 3.4 50 4.7 NW 20 35 11 19 994.3 993.8 6.6
29/03:00pm 13.6 8.3 3.1 49 4.9 NW 20 35 11 19 994.0 993.5 6.6
29/02:30pm 12.8 7.8 4.8 58 3.8 NW 20 30 11 16 994.1 993.6 6.6
29/02:00pm 11.2 6.2 4.4 63 3.2 NW 20 33 11 18 994.5 994.0 6.6
29/01:30pm 10.5 4.1 3.1 60 3.3 NW 26 48 14 26 994.8 994.4 6.4
29/01:00pm 13.8 9.2 5.4 57 4.1 NW 19 30 10 16 994.4 993.9 6.4
29/12:30pm 11.9 7.6 7.0 72 2.4 NW 19 32 10 17 995.0 994.6 6.4
29/12:00pm 12.2 9.3 9.6 84 1.4 N 15 24 8 13 995.3 994.9 6.4
29/11:30am 10.8 8.8 8.7 87 1.1 NNW 9 13 5 7 995.6 995.2 6.4
29/11:00am 10.7 7.5 9.9 95 0.4 NNW 17 30 9 16 995.9 995.4 6.2
29/10:30am 10.3 9.2 10.1 99 0.1 NNE 6 13 3 7 995.9 995.4 6.0
29/10:00am 9.7 8.3 9.6 99 0.1 WSW 7 22 4 12 995.8 995.3 6.0
29/09:30am 9.8 8.6 9.7 99 0.1 NW 6 11 3 6 996.0 995.5 1.6
29/09:00am 9.9 7.4 9.6 98 0.2 NNE 13 28 7 15 996.2 995.8 21.8
29/08:30am 9.5 7.7 9.4 99 0.1 N 9 19 5 10 996.8 996.4 19.0
29/08:00am 9.1 7.6 9.0 99 0.1 NE 7 11 4 6 997.3 996.9 16.2
29/07:30am 8.9 7.5 8.8 99 0.1 NNE 6 11 3 6 997.9 997.5 14.6
29/07:00am 8.6 6.6 8.5 99 0.1 NNE 9 17 5 9 998.5 998.1 12.8
29/06:30am 8.3 6.7 8.2 99 0.0 E 6 13 3 7 999.1 998.8 10.4
29/06:00am 7.6 7.0 7.5 99 0.0 CALM 0 7 0 4 999.8 999.4 7.6
29/05:30am 7.5 6.1 7.4 99 0.0 SSW 4 7 2 4 1000.6 1000.3 5.0
29/05:00am 7.1 6.4 7.0 99 0.0 CALM 0 4 0 2 1001.3 1000.9 2.8
29/04:30am 7.3 5.4 6.7 96 0.3 ESE 6 9 3 5 1001.5 1001.1 0.8
29/04:00am 7.0 5.7 6.1 94 0.4 N 2 7 1 4 1001.9 1001.6 0.0
29/03:30am 6.4 5.4 5.8 96 0.3 CALM 0 0 0 0 1002.0 1001.7 0.0
29/03:00am 6.1 5.1 5.4 95 0.3 CALM 0 6 0 3 1002.4 1002.1 0.0
29/02:30am 6.2 4.0 5.3 94 0.4 ENE 6 9 3 5 1003.3 1002.9 0.0
29/02:00am 6.0 4.1 5.1 94 0.4 ENE 4 7 2 4 1004.3 1004.0 0.0
29/01:30am 5.8 4.6 4.6 92 0.5 CALM 0 0 0 0 1005.0 1004.7 0.0
29/01:00am 6.1 3.8 4.7 91 0.6 ENE 6 7 3 4 1005.7 1005.4 0.0
29/12:30am 6.7 5.7 5.5 92 0.6 CALM 0 0 0 0 1006.1 1005.8 0.0
29/12:00am 6.7 5.6 5.0 89 0.8 CALM 0 0 0 0 1006.9 1006.6 0.0
 
Date/Time
EST
Temp
°C
App
Temp
°C
Dew
Point
°C
Rel
Hum
%
Delta-T
°C
Wind Press
QNH
hPa
Press
MSL
hPa
Rain since
9am
mm
Dir  Spd
km/h
Gust
km/h
Spd
kts
Gust
kts
28/11:30pm 7.5 6.4 5.1 85 1.1 CALM 0 0 0 0 1007.5 1007.2 0.0
28/11:00pm 8.7 6.4 5.8 82 1.4 ESE 7 9 4 5 1007.4 1007.1 0.0
28/10:30pm 9.5 7.4 6.0 79 1.7 E 6 9 3 5 1008.4 1008.1 0.0
28/10:00pm 10.2 8.0 6.2 76 1.9 NNE 7 15 4 8 1008.9 1008.6 0.0
28/09:30pm 10.3 8.3 6.1 75 2.0 NNE 6 13 3 7 1008.6 1008.3 0.0
28/09:00pm 10.9 8.4 6.5 74 2.1 NE 9 19 5 10 1008.6 1008.3 0.0
28/08:30pm 11.3 8.4 6.6 73 2.3 ENE 11 19 6 10 1008.6 1008.3 0.0
28/08:00pm 11.2 8.1 5.7 69 2.6 ENE 11 17 6 9 1008.7 1008.4 0.0
28/07:30pm 10.7 8.0 5.5 70 2.5 E 9 17 5 9 1008.7 1008.4 0.0
28/07:00pm 10.6 8.9 4.1 64 3.0 E 2 6 1 3 1008.5 1008.2 0.0
28/06:30pm 12.2 9.8 4.2 58 3.7 N 6 7 3 4 1008.4 1008.1 0.0
28/06:00pm 14.2 11.7 3.9 50 4.9 NNE 6 9 3 5 1008.1 1007.9 0.0
28/05:30pm 15.2 11.7 3.4 45 5.6 N 11 20 6 11 1008.6 1008.3 0.0
28/05:00pm 15.4 11.9 3.5 45 5.6 N 11 19 6 10 1008.8 1008.5 0.0
28/04:30pm 15.6 11.6 2.7 42 6.0 N 13 19 7 10 1008.7 1008.4 0.0
28/04:00pm 16.2 12.1 2.2 39 6.5 NNW 13 19 7 10 1008.9 1008.6 0.0
28/03:30pm 16.2 12.6 2.9 41 6.2 NNW 11 20 6 11 1009.1 1008.8 0.0
28/03:00pm 16.8 12.9 1.3 35 7.1 N 11 20 6 11 1009.5 1009.3 0.0
28/02:30pm 16.7 13.1 3.1 40 6.4 NNW 11 20 6 11 1009.9 1009.7 0.0
28/02:00pm 16.4 13.1 4.4 45 5.8 N 11 20 6 11 1010.6 1010.3 0.0
28/01:30pm 16.1 11.9 3.9 44 5.8 NW 15 22 8 12 1011.3 1011.1 0.0
28/01:00pm 15.3 11.7 3.1 44 5.7 WNW 11 20 6 11 1011.9 1011.7 0.0
28/12:30pm 15.0 11.2 1.5 40 6.1 NNE 11 19 6 10 1012.4 1012.2 0.0
28/12:00pm 14.6 11.1 1.5 41 5.9 NW 9 15 5 8 1012.6 1012.4 0.0
28/11:30am 14.2 10.8 2.1 44 5.5 N 9 17 5 9 1013.0 1012.8 0.0
28/11:00am 14.1 10.9 3.3 48 5.0 N 9 17 5 9 1013.3 1013.1 0.0
28/10:30am 13.1 10.2 2.6 49 4.8 NNE 7 11 4 6 1013.6 1013.5 0.0
28/10:00am 12.1 9.3 2.3 51 4.4 NW 6 9 3 5 1014.2 1014.0 0.0
28/09:30am 10.9 9.2 2.0 54 3.9 CALM 0 6 0 3 1014.3 1014.1 0.0
28/09:00am 9.0 6.2 1.9 61 3.1 WNW 6 9 3 5 1014.7 1014.5 0.0
28/08:30am 7.8 5.0 2.1 67 2.4 NNW 6 9 3 5 1015.0 1014.9 0.0
28/08:00am 6.8 5.2 2.5 74 1.8 CALM 0 0 0 0 1015.1 1015.0 0.0
28/07:30am 5.2 3.5 2.0 80 1.3 CALM 0 0 0 0 1015.3 1015.2 0.0
28/07:00am 2.8 1.1 1.8 93 0.4 CALM 0 0 0 0 1015.0 1014.9 0.0
28/06:30am 0.6 -1.7 0.2 97 0.2 WNW 2 7 1 4 1014.7 1014.5 0.0
28/06:00am -0.3 -2.4 -0.9 96 0.2 CALM 0 0 0 0 1014.4 1014.2 0.0
28/05:30am -0.5 -2.7 -1.2 95 0.2 CALM 0 0 0 0 1014.2 1014.0 0.0
28/05:00am -0.2 -2.3 -1.0 94 0.3 CALM 0 0 0 0 1013.9 1013.7 0.0
28/04:30am 0.5 -1.5 -0.4 94 0.3 CALM 0 0 0 0 1013.9 1013.7 0.0
28/04:00am 0.5 -1.5 -0.4 94 0.3 CALM 0 0 0 0 1013.9 1013.7 0.0
28/03:30am 1.0 -1.0 0.0 93 0.4 CALM 0 0 0 0 1013.6 1013.5 0.0
28/03:00am 1.6 -1.6 0.6 93 0.4 ESE 7 11 4 6 1013.5 1013.3 0.0
28/02:30am 1.6 -0.3 0.6 93 0.4 CALM 0 6 0 3 1013.6 1013.5 0.0
28/02:00am 1.7 -0.2 0.4 91 0.5 CALM 0 0 0 0 1013.4 1013.2 0.0
28/01:30am 2.7 -0.3 1.1 89 0.6 ENE 6 7 3 4 1013.4 1013.2 0.0
28/01:00am 3.0 1.2 0.9 86 0.8 CALM 0 0 0 0 1013.6 1013.5 0.0
28/12:30am 3.6 1.4 1.2 84 1.0 E 2 7 1 4 1013.5 1013.3 0.0
28/12:00am 4.1 0.7 1.8 85 0.9 E 9 11 5 6 1013.4 1013.2 0.0
 
Date/Time
EST
Temp
°C
App
Temp
°C
Dew
Point
°C
Rel
Hum
%
Delta-T
°C
Wind Press
QNH
hPa
Press
MSL
hPa
Rain since
9am
mm
Dir  Spd
km/h
Gust
km/h
Spd
kts
Gust
kts
27/11:30pm 4.2 1.3 1.7 84 1.0 E 6 11 3 6 1013.6 1013.5 0.0
27/11:00pm 4.4 1.5 1.6 82 1.1 E 6 9 3 5 1013.7 1013.6 0.0
27/10:30pm 4.6 2.8 1.1 78 1.4 CALM 0 0 0 0 1013.6 1013.5 0.0
27/10:00pm 6.0 3.2 2.1 76 1.6 NNE 6 7 3 4 1013.7 1013.6 0.0
27/09:30pm 6.3 3.4 1.6 72 2.0 WNW 6 9 3 5 1013.7 1013.6 0.0
27/09:00pm 7.0 3.6 2.1 71 2.1 NNW 9 13 5 7 1013.6 1013.5 0.0
27/08:30pm 7.3 3.9 2.0 69 2.3 NW 9 13 5 7 1013.3 1013.1 0.0
27/08:00pm 7.7 3.9 2.0 67 2.4 NW 11 17 6 9 1013.2 1013.0 0.0
27/07:30pm 8.1 5.1 0.6 59 3.1 NNW 6 9 3 5 1012.9 1012.7 0.0
27/07:00pm 8.9 5.3 0.4 55 3.5 WNW 9 13 5 7 1012.6 1012.4 0.0
27/06:30pm 9.6 5.6 0.2 52 3.9 NW 11 17 6 9 1011.9 1011.7 0.0
27/06:00pm 10.2 5.7 -0.3 48 4.4 WSW 13 17 7 9 1011.4 1011.2 0.0
27/05:30pm 12.0 7.6 0.1 44 5.1 WSW 13 19 7 10 1011.1 1010.9 0.0
27/05:00pm 12.6 8.2 0.4 43 5.3 WSW 13 17 7 9 1010.7 1010.5 0.0
27/04:30pm 12.9 7.6 -0.4 40 5.7 SW 17 24 9 13 1010.3 1010.0 0.0
27/04:00pm 13.0 7.6 -1.0 38 5.9 WSW 17 26 9 14 1009.8 1009.6 0.0
27/03:30pm 13.9 8.3 -0.2 38 6.1 W 19 32 10 17 1009.4 1009.2 0.0
27/03:00pm 13.2 7.2 -1.5 36 6.1 W 20 28 11 15 1009.3 1009.1 0.0
27/02:30pm 14.1 9.0 0.7 40 5.9 WSW 17 26 9 14 1009.2 1009.0 0.0
27/02:00pm 13.1 7.4 -0.9 38 5.9 WSW 19 30 10 16 1009.2 1009.0 0.0
27/01:30pm 13.4 7.7 0.8 42 5.5 WSW 20 32 11 17 1009.2 1009.0 0.0
27/01:00pm 12.8 7.0 0.2 42 5.4 W 20 30 11 16 1009.1 1008.8 0.0
27/12:30pm 13.4 7.9 1.7 45 5.2 W 20 37 11 20 1008.9 1008.6 0.0
27/12:00pm 12.4 6.7 0.5 44 5.1 W 20 32 11 17 1008.9 1008.6 0.0
27/11:30am 12.6 6.5 0.7 44 5.2 W 22 32 12 17 1009.0 1008.7 0.0
27/11:00am 12.5 6.8 0.6 44 5.2 W 20 37 11 20 1009.0 1008.7 0.0
27/10:30am 12.1 5.6 0.5 45 5.0 WNW 24 39 13 21 1009.0 1008.7 0.0
27/10:00am 11.9 6.2 0.7 46 4.8 WNW 20 35 11 19 1009.0 1008.7 0.0

Other Formats:

Comma delimited format used in spreadsheet applications
http://www.bom.gov.au/fwo/IDN60801/IDN60801.94925.axf

JavaScript Object Notation format (JSON) in row-major order
http://www.bom.gov.au/fwo/IDN60801/IDN60801.94925.json